createdAt,value
2022-08-23T00:02:43.439Z,1.50
2022-08-23T00:05:29.101Z,1.35
2022-08-23T00:08:14.997Z,1.80
2022-08-23T00:11:00.691Z,1.65
2022-08-23T00:13:48.264Z,1.63
2022-08-23T00:16:33.945Z,1.55
2022-08-23T00:19:21.082Z,1.52
2022-08-23T00:22:07.556Z,1.42
2022-08-23T00:24:52.947Z,1.55
2022-08-23T00:27:39.178Z,1.55
2022-08-23T00:30:24.741Z,1.48
2022-08-23T00:33:10.541Z,1.33
2022-08-23T00:35:55.882Z,1.05
2022-08-23T00:38:42.060Z,1.25
2022-08-23T00:41:28.518Z,1.20
2022-08-23T00:44:44.341Z,1.50
2022-08-23T00:47:41.801Z,1.20
2022-08-23T00:50:36.344Z,1.33
2022-08-23T00:56:13.094Z,1.92
2022-08-23T00:58:58.711Z,1.30
2022-08-23T01:01:44.631Z,1.50
2022-08-23T01:04:37.460Z,1.70
2022-08-23T01:07:46.907Z,2.10
2022-08-23T01:10:47.398Z,2.17
2022-08-23T01:13:50.535Z,2.05
2022-08-23T01:16:49.059Z,2.10
2022-08-23T01:19:46.431Z,2.17
2022-08-23T01:23:02.008Z,1.83
2022-08-23T01:25:47.753Z,1.95
2022-08-23T01:28:34.177Z,2.20
2022-08-23T01:31:21.233Z,2.80
2022-08-23T01:34:09.931Z,2.05
2022-08-23T01:36:56.709Z,2.40
2022-08-23T01:39:42.442Z,2.70
2022-08-23T01:42:28.609Z,3.15
2022-08-23T01:45:14.674Z,3.22
2022-08-23T01:48:00.404Z,2.35
2022-08-23T01:50:46.357Z,3.50
2022-08-23T01:53:32.054Z,3.55
2022-08-23T01:56:39.018Z,3.95
2022-08-23T01:59:25.090Z,4.47
2022-08-23T02:02:10.215Z,4.57
2022-08-23T02:04:55.944Z,4.82
2022-08-23T02:07:41.526Z,5.13
2022-08-23T02:10:26.956Z,5.35
2022-08-23T02:13:12.454Z,5.85
2022-08-23T02:15:59.535Z,6.30
2022-08-23T02:18:45.223Z,5.80
2022-08-23T02:21:31.506Z,6.60
2022-08-23T02:24:24.213Z,6.30
2022-08-23T02:27:09.991Z,6.53
2022-08-23T02:29:55.471Z,8.02
2022-08-23T02:32:42.192Z,7.55
2022-08-23T02:35:28.722Z,8.27
2022-08-23T02:38:14.220Z,7.32
2022-08-23T02:41:00.837Z,8.13
2022-08-23T02:43:46.713Z,8.25
2022-08-23T02:46:32.274Z,9.00
2022-08-23T02:49:19.186Z,9.48
2022-08-23T02:52:06.624Z,8.98
2022-08-23T02:54:53.278Z,9.02
2022-08-23T02:57:43.938Z,9.63
2022-08-23T03:00:29.386Z,9.15
2022-08-23T03:03:15.647Z,9.88
2022-08-23T03:06:24.419Z,9.75
2022-08-23T03:09:07.520Z,9.43
2022-08-23T03:11:53.017Z,9.68
2022-08-23T03:14:38.527Z,9.77
2022-08-23T03:17:24.299Z,9.35
2022-08-23T03:20:10.267Z,8.45
2022-08-23T03:22:55.916Z,8.57
2022-08-23T03:25:41.757Z,8.52
2022-08-23T03:28:27.835Z,7.38
2022-08-23T03:31:14.322Z,8.57
2022-08-23T03:33:59.866Z,7.90
2022-08-23T03:36:45.464Z,7.95
2022-08-23T03:39:30.449Z,6.53
2022-08-23T03:42:16.525Z,7.75
2022-08-23T03:45:05.816Z,7.65
2022-08-23T03:47:51.859Z,6.43
2022-08-23T03:50:37.186Z,5.93
2022-08-23T03:53:24.094Z,5.28
2022-08-23T03:56:09.416Z,5.55
2022-08-23T03:58:56.797Z,5.60
2022-08-23T04:01:42.303Z,5.68
2022-08-23T04:04:28.265Z,5.35
2022-08-23T04:07:17.843Z,5.03
2022-08-23T04:10:03.640Z,5.82
2022-08-23T04:12:49.769Z,4.50
2022-08-23T04:15:35.755Z,5.00
2022-08-23T04:18:21.080Z,4.68
2022-08-23T04:21:10.563Z,5.30
2022-08-23T04:23:55.941Z,5.97
2022-08-23T04:26:41.994Z,7.30
2022-08-23T04:29:34.239Z,7.35
2022-08-23T04:32:26.582Z,8.40
2022-08-23T04:35:15.266Z,8.00
2022-08-23T04:38:00.855Z,8.35
2022-08-23T04:41:04.685Z,8.82
2022-08-23T04:43:57.017Z,9.40
2022-08-23T04:46:43.729Z,8.75
2022-08-23T04:49:30.192Z,9.85
2022-08-23T04:52:19.211Z,9.07
2022-08-23T04:55:05.544Z,9.07
2022-08-23T04:57:50.983Z,8.43
2022-08-23T05:00:37.778Z,9.02
2022-08-23T05:03:23.375Z,10.13
2022-08-23T05:06:08.720Z,8.98
2022-08-23T05:08:54.142Z,9.60
2022-08-23T05:11:39.478Z,8.23
2022-08-23T05:14:25.091Z,8.60
2022-08-23T05:17:10.638Z,8.45
2022-08-23T05:19:56.207Z,8.82
2022-08-23T05:22:42.182Z,7.25
2022-08-23T05:25:48.338Z,7.25
2022-08-23T05:28:34.987Z,6.63
2022-08-23T05:31:23.103Z,6.82
2022-08-23T05:34:08.622Z,5.82
2022-08-23T05:36:55.270Z,6.57
2022-08-23T05:39:43.116Z,6.35
2022-08-23T05:42:28.599Z,6.53
2022-08-23T05:45:16.324Z,6.38
2022-08-23T05:48:06.816Z,6.88
2022-08-23T05:50:52.131Z,6.75
2022-08-23T05:53:38.697Z,6.63
2022-08-23T05:56:27.602Z,6.82
2022-08-23T05:59:16.000Z,6.75
2022-08-23T06:02:02.031Z,7.63
2022-08-23T06:04:47.645Z,6.75
2022-08-23T06:07:37.023Z,7.30
2022-08-23T06:10:22.487Z,7.70
2022-08-23T06:13:07.747Z,7.80
2022-08-23T06:15:53.305Z,9.38
2022-08-23T06:18:38.778Z,9.38
2022-08-23T06:21:25.636Z,8.38
2022-08-23T06:24:12.295Z,9.50
2022-08-23T06:26:57.740Z,8.88
2022-08-23T06:29:43.604Z,8.95
2022-08-23T06:32:29.151Z,9.25
2022-08-23T06:35:37.781Z,8.82
2022-08-23T06:38:20.499Z,9.60
2022-08-23T06:41:08.949Z,8.15
2022-08-23T06:43:54.621Z,8.32
2022-08-23T06:46:40.587Z,8.23
2022-08-23T06:49:27.724Z,9.05
2022-08-23T06:52:13.910Z,8.35
2022-08-23T06:55:02.324Z,8.07
2022-08-23T06:57:47.924Z,7.50
2022-08-23T07:00:33.126Z,8.02
2022-08-23T07:03:18.696Z,8.52
2022-08-23T07:06:04.894Z,7.97
2022-08-23T07:08:51.067Z,8.38
2022-08-23T07:11:39.428Z,8.35
2022-08-23T07:14:25.488Z,8.30
2022-08-23T07:17:12.456Z,8.18
2022-08-23T07:19:57.603Z,8.50
2022-08-23T07:22:44.548Z,8.60
2022-08-23T07:25:30.121Z,8.35
2022-08-23T07:28:15.538Z,8.55
2022-08-23T07:31:11.412Z,7.68
2022-08-23T07:34:02.566Z,7.65
2022-08-23T07:36:52.379Z,7.65
2022-08-23T07:39:37.551Z,7.15
2022-08-23T07:42:26.171Z,6.72
2022-08-23T07:45:12.994Z,6.50
2022-08-23T07:48:01.914Z,5.93
2022-08-23T07:50:58.174Z,5.82
2022-08-23T07:53:46.131Z,5.18
2022-08-23T07:56:32.158Z,4.25
2022-08-23T07:59:17.644Z,5.00
2022-08-23T08:02:03.654Z,4.75
2022-08-23T08:04:49.187Z,3.70
2022-08-23T08:07:35.390Z,3.55
2022-08-23T08:10:22.886Z,3.45
2022-08-23T08:13:09.058Z,3.42
2022-08-23T08:15:55.136Z,3.38
2022-08-23T08:18:40.774Z,2.75
2022-08-23T08:21:27.989Z,2.53
2022-08-23T08:24:16.317Z,2.35
2022-08-23T08:27:01.801Z,2.15
2022-08-23T08:29:47.280Z,2.53
2022-08-23T08:32:32.634Z,2.40
2022-08-23T08:35:18.210Z,2.40
2022-08-23T08:38:04.215Z,2.70
2022-08-23T08:41:00.532Z,2.40
2022-08-23T08:44:06.572Z,2.45
2022-08-23T08:46:57.190Z,2.70
2022-08-23T08:49:53.030Z,2.33
2022-08-23T08:52:47.502Z,3.10
2022-08-23T08:55:38.799Z,2.28
2022-08-23T08:58:29.890Z,2.60
2022-08-23T09:01:20.968Z,3.72
2022-08-23T09:04:07.932Z,2.90
2022-08-23T09:06:55.896Z,3.05
2022-08-23T09:09:53.122Z,2.30
2022-08-23T09:13:23.015Z,2.20
2022-08-23T09:16:29.495Z,2.45
2022-08-23T09:19:15.065Z,2.60
2022-08-23T09:22:13.405Z,3.00
2022-08-23T09:24:59.163Z,3.10
2022-08-23T09:27:46.021Z,2.58
2022-08-23T09:30:49.172Z,2.33
2022-08-23T09:33:41.641Z,1.90
2022-08-23T09:36:31.263Z,2.83
2022-08-23T09:39:32.161Z,1.63
2022-08-23T09:42:37.491Z,1.63
2022-08-23T09:45:37.804Z,1.75
2022-08-23T09:48:40.084Z,1.98
2022-08-23T09:51:40.426Z,2.10
2022-08-23T09:54:34.850Z,1.77
2022-08-23T09:57:25.890Z,2.10
2022-08-23T10:00:22.121Z,1.95
2022-08-23T10:03:27.719Z,1.60
2022-08-23T10:06:31.092Z,1.70
2022-08-23T10:09:29.862Z,1.80
2022-08-23T10:12:15.391Z,1.60
2022-08-23T10:15:01.734Z,2.05
2022-08-23T10:18:03.524Z,1.88
2022-08-23T10:21:18.965Z,1.50
2022-08-23T10:24:14.593Z,1.60
2022-08-23T10:27:33.138Z,1.67
2022-08-23T10:30:23.560Z,1.75
2022-08-23T10:33:18.416Z,1.50
2022-08-23T10:36:16.690Z,1.83
2022-08-23T10:39:07.060Z,1.48
2022-08-23T10:42:11.175Z,1.70
2022-08-23T10:45:11.164Z,1.70
2022-08-23T10:48:22.097Z,1.80
2022-08-23T10:51:36.228Z,1.30
2022-08-23T10:54:45.945Z,1.40
2022-08-23T10:57:37.425Z,1.30
2022-08-23T11:00:26.900Z,1.47
2022-08-23T11:03:34.591Z,1.63
2022-08-23T11:06:35.267Z,1.77
2022-08-23T11:09:20.473Z,1.40
2022-08-23T11:12:15.628Z,1.30
2022-08-23T11:15:25.128Z,1.52
2022-08-23T11:18:42.331Z,1.88
2022-08-23T11:21:33.497Z,1.25
2022-08-23T11:24:50.242Z,1.60
2022-08-23T11:27:42.659Z,1.35
2022-08-23T11:30:36.902Z,1.10
2022-08-23T11:33:33.769Z,1.00
2022-08-23T11:36:25.957Z,1.55
2022-08-23T11:39:13.259Z,0.93
2022-08-23T11:42:06.637Z,1.20
2022-08-23T11:44:52.342Z,1.00
2022-08-23T11:47:44.487Z,1.02
2022-08-23T11:53:54.511Z,1.15
2022-08-23T11:56:55.276Z,1.30
2022-08-23T11:59:53.370Z,1.40
2022-08-23T12:02:38.694Z,1.38
2022-08-23T12:05:39.449Z,1.23
2022-08-23T12:08:30.319Z,1.20
2022-08-23T12:11:18.610Z,1.20
2022-08-23T12:14:42.732Z,1.00
2022-08-23T12:17:49.408Z,1.08
2022-08-23T12:20:36.697Z,1.33
2022-08-23T12:23:24.318Z,1.20
2022-08-23T12:26:39.580Z,1.10
2022-08-23T12:29:27.920Z,0.80
2022-08-23T12:32:24.028Z,1.00
2022-08-23T12:35:46.316Z,1.15
2022-08-23T12:38:31.612Z,0.55
2022-08-23T12:41:54.144Z,1.27
2022-08-23T12:44:39.840Z,0.73
2022-08-23T12:47:25.130Z,0.90
2022-08-23T12:50:15.026Z,1.13
2022-08-23T12:53:05.472Z,0.90
2022-08-23T12:55:58.949Z,0.80
2022-08-23T12:58:52.381Z,0.85
2022-08-23T13:01:39.986Z,0.98
2022-08-23T13:04:25.385Z,0.80
2022-08-23T13:07:18.222Z,0.75
2022-08-23T13:10:06.650Z,0.60
2022-08-23T13:12:52.664Z,1.02
2022-08-23T13:15:54.144Z,0.70
2022-08-23T13:18:39.786Z,0.60
2022-08-23T13:21:34.864Z,0.68
2022-08-23T13:24:38.493Z,0.40
2022-08-23T13:27:36.485Z,0.50
2022-08-23T13:30:27.534Z,0.70
2022-08-23T13:33:12.994Z,0.77
2022-08-23T13:36:19.865Z,0.63
2022-08-23T13:39:07.841Z,0.50
2022-08-23T13:41:53.310Z,0.50
2022-08-23T13:44:38.772Z,0.57
2022-08-23T13:47:27.928Z,0.35
2022-08-23T13:50:34.721Z,0.38
2022-08-23T13:53:20.927Z,0.50
2022-08-23T13:56:06.800Z,0.40
2022-08-23T13:59:32.486Z,0.40
2022-08-23T14:02:20.428Z,0.50
2022-08-23T14:05:08.185Z,0.30
2022-08-23T14:07:53.846Z,0.75
2022-08-23T14:10:39.212Z,0.47
2022-08-23T14:13:29.190Z,0.50
2022-08-23T14:16:40.589Z,0.38
2022-08-23T14:22:31.900Z,0.52
2022-08-23T14:25:17.699Z,0.30
2022-08-23T14:28:03.425Z,0.50
2022-08-23T14:30:48.639Z,0.68
2022-08-23T14:33:34.190Z,0.57
2022-08-23T14:36:19.767Z,0.60
2022-08-23T14:39:12.497Z,0.50
2022-08-23T14:42:00.139Z,0.47
2022-08-23T14:44:45.776Z,0.70
2022-08-23T14:47:31.313Z,0.70
2022-08-23T14:50:17.129Z,0.73
2022-08-23T14:53:04.449Z,0.90
2022-08-23T14:56:06.837Z,0.70
2022-08-23T14:58:58.564Z,0.70
2022-08-23T15:01:46.073Z,0.65
2022-08-23T15:04:34.776Z,0.60
2022-08-23T15:07:22.671Z,0.52
2022-08-23T15:10:49.898Z,0.65
2022-08-23T15:13:26.118Z,0.55
2022-08-23T15:16:17.738Z,0.60
2022-08-23T15:19:03.636Z,0.80
2022-08-23T15:21:49.291Z,0.50
2022-08-23T15:24:35.135Z,0.50
2022-08-23T15:27:21.782Z,0.40
2022-08-23T15:30:08.163Z,0.60
2022-08-23T15:32:56.799Z,0.68
2022-08-23T15:35:51.946Z,0.70
2022-08-23T15:38:38.013Z,0.70
2022-08-23T15:41:23.694Z,0.63
2022-08-23T15:44:09.658Z,0.70
2022-08-23T15:46:54.998Z,0.88
2022-08-23T15:49:40.583Z,0.75
2022-08-23T15:52:27.467Z,0.90
2022-08-23T15:55:13.220Z,0.88
2022-08-23T15:57:59.238Z,0.90
2022-08-23T16:00:45.455Z,0.88
2022-08-23T16:03:30.967Z,0.90
2022-08-23T16:06:16.903Z,1.02
2022-08-23T16:09:03.691Z,1.02
2022-08-23T16:11:49.992Z,0.93
2022-08-23T16:14:36.669Z,0.93
2022-08-23T16:17:22.604Z,1.00
2022-08-23T16:20:10.658Z,0.90
2022-08-23T16:22:56.114Z,1.50
2022-08-23T16:25:42.676Z,1.17
2022-08-23T16:28:28.310Z,1.23
2022-08-23T16:31:14.377Z,1.05
2022-08-23T16:34:01.224Z,1.17
2022-08-23T16:36:53.744Z,1.40
2022-08-23T16:39:40.728Z,1.40
2022-08-23T16:42:26.099Z,1.23
2022-08-23T16:45:11.992Z,1.30
2022-08-23T16:47:58.018Z,0.95
2022-08-23T16:50:43.807Z,1.60
2022-08-23T16:53:29.320Z,1.20
2022-08-23T16:56:15.775Z,1.45
2022-08-23T16:59:02.801Z,1.20
2022-08-23T17:01:51.356Z,1.17
2022-08-23T17:04:37.455Z,1.50
2022-08-23T17:07:23.329Z,1.50
2022-08-23T17:10:10.698Z,1.30
2022-08-23T17:12:57.444Z,1.15
2022-08-23T17:15:43.263Z,1.42
2022-08-23T17:18:28.757Z,1.55
2022-08-23T17:21:14.320Z,1.55
2022-08-23T17:23:59.825Z,1.40
2022-08-23T17:26:45.442Z,1.35
2022-08-23T17:29:31.036Z,1.35
2022-08-23T17:32:23.536Z,1.45
2022-08-23T17:35:14.651Z,1.55
2022-08-23T17:38:00.545Z,1.77
2022-08-23T17:40:46.714Z,1.80
2022-08-23T17:43:32.113Z,1.88
2022-08-23T17:46:17.954Z,1.80
2022-08-23T17:49:04.992Z,1.95
2022-08-23T17:51:50.733Z,1.83
2022-08-23T17:54:36.234Z,1.67
2022-08-23T17:57:23.714Z,2.35
2022-08-23T18:00:09.996Z,2.20
2022-08-23T18:02:56.204Z,1.88
2022-08-23T18:05:43.008Z,2.42
2022-08-23T18:08:28.532Z,2.17
2022-08-23T18:11:14.637Z,2.35
2022-08-23T18:14:01.171Z,2.10
2022-08-23T18:16:47.357Z,2.33
2022-08-23T18:19:33.366Z,2.45
2022-08-23T18:22:19.785Z,2.78
2022-08-23T18:25:08.027Z,2.08
2022-08-23T18:28:09.739Z,2.20
2022-08-23T18:30:55.727Z,1.98
2022-08-23T18:33:46.321Z,2.10
2022-08-23T18:36:32.865Z,2.20
2022-08-23T18:39:31.217Z,2.03
2022-08-23T18:42:17.947Z,2.25
2022-08-23T18:45:05.074Z,1.90
2022-08-23T18:47:50.348Z,2.45
2022-08-23T18:50:35.864Z,2.42
2022-08-23T18:53:22.176Z,2.03
2022-08-23T18:56:08.132Z,2.28
2022-08-23T18:58:53.876Z,2.55
2022-08-23T19:01:40.908Z,2.63
2022-08-23T19:04:26.823Z,2.72
2022-08-23T19:07:12.449Z,2.17
2022-08-23T19:09:58.119Z,2.30
2022-08-23T19:12:48.743Z,2.58
2022-08-23T19:15:40.562Z,2.42
2022-08-23T19:18:27.736Z,2.65
2022-08-23T19:21:15.501Z,2.70
2022-08-23T19:24:01.148Z,2.03
2022-08-23T19:26:48.624Z,2.40
2022-08-23T19:29:34.623Z,2.22
2022-08-23T19:32:19.855Z,2.00
2022-08-23T19:35:10.372Z,2.00
2022-08-23T19:37:57.621Z,2.13
2022-08-23T19:40:43.081Z,2.30
2022-08-23T19:43:29.113Z,2.00
2022-08-23T19:46:17.951Z,1.70
2022-08-23T19:49:07.095Z,1.55
2022-08-23T19:51:52.818Z,1.55
2022-08-23T19:54:38.328Z,1.77
2022-08-23T19:57:24.141Z,1.50
2022-08-23T20:00:19.284Z,1.65
2022-08-23T20:03:05.384Z,1.70
2022-08-23T20:05:51.581Z,1.63
2022-08-23T20:08:36.937Z,1.88
2022-08-23T20:11:23.109Z,1.73
2022-08-23T20:14:10.016Z,1.95
2022-08-23T20:16:55.741Z,2.30
2022-08-23T20:19:41.941Z,2.10
2022-08-23T20:22:46.207Z,2.40
2022-08-23T20:25:31.743Z,1.90
2022-08-23T20:28:17.915Z,2.53
2022-08-23T20:31:15.544Z,2.20
2022-08-23T20:34:01.382Z,2.10
2022-08-23T20:36:46.789Z,2.65
2022-08-23T20:39:32.476Z,2.67
2022-08-23T20:42:18.079Z,2.15
2022-08-23T20:45:07.430Z,2.90
2022-08-23T20:47:53.138Z,2.60
2022-08-23T20:50:41.759Z,2.88
2022-08-23T20:53:29.125Z,2.80
2022-08-23T20:56:16.191Z,2.35
2022-08-23T20:59:01.937Z,2.63
2022-08-23T21:01:48.424Z,2.20
2022-08-23T21:04:34.024Z,2.28
2022-08-23T21:07:20.729Z,2.63
2022-08-23T21:10:06.487Z,2.58
2022-08-23T21:12:52.325Z,2.42
2022-08-23T21:15:38.109Z,2.75
2022-08-23T21:18:23.522Z,2.30
2022-08-23T21:21:09.483Z,2.45
2022-08-23T21:23:56.555Z,2.65
2022-08-23T21:26:42.200Z,2.38
2022-08-23T21:29:27.428Z,2.65
2022-08-23T21:32:12.812Z,2.60
2022-08-23T21:34:59.447Z,2.90
2022-08-23T21:37:44.891Z,2.70
2022-08-23T21:40:31.294Z,2.80
2022-08-23T21:43:16.950Z,2.20
2022-08-23T21:46:11.771Z,3.05
2022-08-23T21:48:57.331Z,2.42
2022-08-23T21:51:43.902Z,2.03
2022-08-23T21:54:29.257Z,2.55
2022-08-23T21:57:15.273Z,2.90
2022-08-23T22:00:01.966Z,2.58
2022-08-23T22:02:47.585Z,3.08
2022-08-23T22:05:33.280Z,3.03
2022-08-23T22:08:18.401Z,2.65
2022-08-23T22:11:07.464Z,3.22
2022-08-23T22:13:53.935Z,3.40
2022-08-23T22:16:41.038Z,3.20
2022-08-23T22:19:26.658Z,3.50
2022-08-23T22:22:12.087Z,3.35
2022-08-23T22:24:57.981Z,3.50
2022-08-23T22:27:44.730Z,4.03
2022-08-23T22:30:29.892Z,3.70
2022-08-23T22:33:15.700Z,4.15
2022-08-23T22:36:12.564Z,3.30
2022-08-23T22:38:58.366Z,3.30
2022-08-23T22:41:43.617Z,3.08
2022-08-23T22:44:29.352Z,2.80
2022-08-23T22:47:15.228Z,2.90
2022-08-23T22:50:02.940Z,3.50
2022-08-23T22:52:48.646Z,4.00
2022-08-23T22:55:33.945Z,3.47
2022-08-23T22:58:19.515Z,3.17
2022-08-23T23:01:10.868Z,3.30
2022-08-23T23:04:00.138Z,3.40
2022-08-23T23:06:46.456Z,3.28
2022-08-23T23:09:31.851Z,3.60
2022-08-23T23:12:17.300Z,3.92
2022-08-23T23:15:02.789Z,3.28
2022-08-23T23:17:47.974Z,3.25
2022-08-23T23:20:40.137Z,4.00
2022-08-23T23:23:25.782Z,3.80
2022-08-23T23:26:11.389Z,3.85
2022-08-23T23:28:56.856Z,3.00
2022-08-23T23:31:41.980Z,3.63
2022-08-23T23:34:28.338Z,4.05
2022-08-23T23:37:14.799Z,3.45
2022-08-23T23:40:00.287Z,3.95
2022-08-23T23:42:46.546Z,3.55
2022-08-23T23:45:32.101Z,3.88
2022-08-23T23:48:17.579Z,4.20
2022-08-23T23:51:08.263Z,3.95
2022-08-23T23:53:54.437Z,4.00
2022-08-23T23:56:41.314Z,4.18
2022-08-23T23:59:27.030Z,4.05
